sensor_id;sensor_type;location;lat;lon;timestamp;P1;durP1;ratioP1;P2;durP2;ratioP2
16593;SDS011;8410;52.532;13.336;2023-03-04T00:00:27;38.97;;;26.80;;
16593;SDS011;8410;52.532;13.336;2023-03-04T00:02:54;38.50;;;25.07;;
16593;SDS011;8410;52.532;13.336;2023-03-04T00:05:22;38.70;;;24.70;;
16593;SDS011;8410;52.532;13.336;2023-03-04T00:07:49;39.20;;;25.53;;
16593;SDS011;8410;52.532;13.336;2023-03-04T00:10:17;37.67;;;24.83;;
16593;SDS011;8410;52.532;13.336;2023-03-04T00:12:44;46.57;;;30.00;;
16593;SDS011;8410;52.532;13.336;2023-03-04T00:15:13;36.70;;;23.70;;
16593;SDS011;8410;52.532;13.336;2023-03-04T00:17:40;59.13;;;44.53;;
16593;SDS011;8410;52.532;13.336;2023-03-04T00:20:08;46.90;;;30.43;;
16593;SDS011;8410;52.532;13.336;2023-03-04T00:22:36;40.07;;;25.07;;
16593;SDS011;8410;52.532;13.336;2023-03-04T00:25:04;51.70;;;35.80;;
16593;SDS011;8410;52.532;13.336;2023-03-04T00:27:32;43.93;;;28.40;;
16593;SDS011;8410;52.532;13.336;2023-03-04T00:30:00;35.23;;;23.43;;
16593;SDS011;8410;52.532;13.336;2023-03-04T00:32:29;34.27;;;22.27;;
16593;SDS011;8410;52.532;13.336;2023-03-04T00:34:56;33.77;;;21.83;;
16593;SDS011;8410;52.532;13.336;2023-03-04T00:37:24;38.07;;;23.27;;
16593;SDS011;8410;52.532;13.336;2023-03-04T00:39:51;34.93;;;22.93;;
16593;SDS011;8410;52.532;13.336;2023-03-04T00:42:19;33.17;;;21.50;;
16593;SDS011;8410;52.532;13.336;2023-03-04T00:44:46;32.13;;;20.87;;
16593;SDS011;8410;52.532;13.336;2023-03-04T00:47:14;32.53;;;20.30;;
16593;SDS011;8410;52.532;13.336;2023-03-04T00:49:43;34.47;;;22.30;;
16593;SDS011;8410;52.532;13.336;2023-03-04T00:52:11;36.37;;;21.43;;
16593;SDS011;8410;52.532;13.336;2023-03-04T00:54:38;31.13;;;18.53;;
16593;SDS011;8410;52.532;13.336;2023-03-04T00:57:05;32.20;;;17.93;;
16593;SDS011;8410;52.532;13.336;2023-03-04T00:59:33;37.83;;;22.40;;
16593;SDS011;8410;52.532;13.336;2023-03-04T01:02:01;29.13;;;16.63;;
16593;SDS011;8410;52.532;13.336;2023-03-04T01:04:29;31.47;;;18.33;;
16593;SDS011;8410;52.532;13.336;2023-03-04T01:06:57;28.80;;;16.17;;
16593;SDS011;8410;52.532;13.336;2023-03-04T01:09:25;34.77;;;16.40;;
16593;SDS011;8410;52.532;13.336;2023-03-04T01:11:52;24.73;;;15.30;;
16593;SDS011;8410;52.532;13.336;2023-03-04T01:14:20;29.13;;;15.03;;
16593;SDS011;8410;52.532;13.336;2023-03-04T01:16:47;31.67;;;15.63;;
16593;SDS011;8410;52.532;13.336;2023-03-04T01:19:15;23.47;;;13.70;;
16593;SDS011;8410;52.532;13.336;2023-03-04T01:21:43;30.70;;;14.67;;
16593;SDS011;8410;52.532;13.336;2023-03-04T01:24:12;26.27;;;13.10;;
16593;SDS011;8410;52.532;13.336;2023-03-04T01:26:39;29.47;;;12.50;;
16593;SDS011;8410;52.532;13.336;2023-03-04T01:29:07;23.37;;;12.73;;
16593;SDS011;8410;52.532;13.336;2023-03-04T01:31:34;24.90;;;11.80;;
16593;SDS011;8410;52.532;13.336;2023-03-04T01:34:02;21.90;;;10.70;;
16593;SDS011;8410;52.532;13.336;2023-03-04T01:36:29;25.40;;;12.97;;
16593;SDS011;8410;52.532;13.336;2023-03-04T01:38:57;25.80;;;12.33;;
16593;SDS011;8410;52.532;13.336;2023-03-04T01:41:26;26.20;;;12.53;;
16593;SDS011;8410;52.532;13.336;2023-03-04T01:43:54;22.03;;;10.93;;
16593;SDS011;8410;52.532;13.336;2023-03-04T01:46:23;21.87;;;10.77;;
16593;SDS011;8410;52.532;13.336;2023-03-04T01:48:51;25.40;;;11.30;;
16593;SDS011;8410;52.532;13.336;2023-03-04T01:51:19;25.90;;;10.17;;
16593;SDS011;8410;52.532;13.336;2023-03-04T01:53:48;20.63;;;10.40;;
16593;SDS011;8410;52.532;13.336;2023-03-04T01:56:21;23.50;;;10.30;;
16593;SDS011;8410;52.532;13.336;2023-03-04T01:59:06;20.47;;;10.80;;
16593;SDS011;8410;52.532;13.336;2023-03-04T02:01:36;25.57;;;10.17;;
16593;SDS011;8410;52.532;13.336;2023-03-04T02:04:04;26.60;;;10.43;;
16593;SDS011;8410;52.532;13.336;2023-03-04T02:06:33;18.17;;;9.70;;
16593;SDS011;8410;52.532;13.336;2023-03-04T02:09:01;24.10;;;9.77;;
16593;SDS011;8410;52.532;13.336;2023-03-04T02:11:30;17.33;;;8.77;;
16593;SDS011;8410;52.532;13.336;2023-03-04T02:13:58;21.70;;;9.10;;
16593;SDS011;8410;52.532;13.336;2023-03-04T02:16:27;17.83;;;9.10;;
16593;SDS011;8410;52.532;13.336;2023-03-04T02:18:55;22.20;;;10.20;;
16593;SDS011;8410;52.532;13.336;2023-03-04T02:21:23;20.67;;;9.33;;
16593;SDS011;8410;52.532;13.336;2023-03-04T02:23:56;19.33;;;9.30;;
16593;SDS011;8410;52.532;13.336;2023-03-04T02:26:30;22.73;;;9.07;;
16593;SDS011;8410;52.532;13.336;2023-03-04T02:29:00;20.07;;;8.83;;
16593;SDS011;8410;52.532;13.336;2023-03-04T02:31:30;22.73;;;7.97;;
16593;SDS011;8410;52.532;13.336;2023-03-04T02:34:00;17.00;;;7.40;;
16593;SDS011;8410;52.532;13.336;2023-03-04T02:36:29;22.67;;;9.30;;
16593;SDS011;8410;52.532;13.336;2023-03-04T02:39:00;17.60;;;7.23;;
16593;SDS011;8410;52.532;13.336;2023-03-04T02:41:31;18.53;;;7.50;;
16593;SDS011;8410;52.532;13.336;2023-03-04T02:43:59;18.67;;;7.27;;
16593;SDS011;8410;52.532;13.336;2023-03-04T02:46:26;18.70;;;7.20;;
16593;SDS011;8410;52.532;13.336;2023-03-04T02:48:54;26.20;;;8.23;;
16593;SDS011;8410;52.532;13.336;2023-03-04T02:51:21;20.70;;;7.80;;
16593;SDS011;8410;52.532;13.336;2023-03-04T02:53:49;16.80;;;7.40;;
16593;SDS011;8410;52.532;13.336;2023-03-04T02:56:16;18.53;;;8.27;;
16593;SDS011;8410;52.532;13.336;2023-03-04T02:58:45;20.20;;;7.30;;
16593;SDS011;8410;52.532;13.336;2023-03-04T03:01:12;22.07;;;7.53;;
16593;SDS011;8410;52.532;13.336;2023-03-04T03:03:40;20.57;;;7.93;;
16593;SDS011;8410;52.532;13.336;2023-03-04T03:06:08;20.43;;;8.20;;
16593;SDS011;8410;52.532;13.336;2023-03-04T03:08:35;18.73;;;8.50;;
16593;SDS011;8410;52.532;13.336;2023-03-04T03:11:03;24.87;;;8.37;;
16593;SDS011;8410;52.532;13.336;2023-03-04T03:13:33;19.13;;;8.80;;
16593;SDS011;8410;52.532;13.336;2023-03-04T03:16:02;19.30;;;7.70;;
16593;SDS011;8410;52.532;13.336;2023-03-04T03:18:30;18.07;;;6.90;;
16593;SDS011;8410;52.532;13.336;2023-03-04T03:20:57;17.13;;;7.00;;
16593;SDS011;8410;52.532;13.336;2023-03-04T03:23:25;18.23;;;7.10;;
16593;SDS011;8410;52.532;13.336;2023-03-04T03:25:52;21.70;;;6.77;;
16593;SDS011;8410;52.532;13.336;2023-03-04T03:28:19;25.93;;;8.97;;
16593;SDS011;8410;52.532;13.336;2023-03-04T03:30:47;14.87;;;7.10;;
16593;SDS011;8410;52.532;13.336;2023-03-04T03:33:16;26.83;;;8.50;;
16593;SDS011;8410;52.532;13.336;2023-03-04T03:35:43;20.57;;;7.10;;
16593;SDS011;8410;52.532;13.336;2023-03-04T03:38:11;23.50;;;12.60;;
16593;SDS011;8410;52.532;13.336;2023-03-04T03:40:38;14.20;;;6.67;;
16593;SDS011;8410;52.532;13.336;2023-03-04T03:43:06;14.77;;;5.83;;
16593;SDS011;8410;52.532;13.336;2023-03-04T03:45:33;18.43;;;6.40;;
16593;SDS011;8410;52.532;13.336;2023-03-04T03:48:01;19.03;;;6.50;;
16593;SDS011;8410;52.532;13.336;2023-03-04T03:50:29;18.50;;;6.87;;
16593;SDS011;8410;52.532;13.336;2023-03-04T03:52:58;21.00;;;7.37;;
16593;SDS011;8410;52.532;13.336;2023-03-04T03:55:25;21.67;;;6.20;;
16593;SDS011;8410;52.532;13.336;2023-03-04T03:57:53;19.90;;;7.00;;
16593;SDS011;8410;52.532;13.336;2023-03-04T04:00:21;19.07;;;6.30;;
16593;SDS011;8410;52.532;13.336;2023-03-04T04:02:48;17.10;;;6.20;;
16593;SDS011;8410;52.532;13.336;2023-03-04T04:05:16;15.77;;;5.90;;
16593;SDS011;8410;52.532;13.336;2023-03-04T04:07:45;21.87;;;7.83;;
16593;SDS011;8410;52.532;13.336;2023-03-04T04:10:12;21.13;;;6.73;;
16593;SDS011;8410;52.532;13.336;2023-03-04T04:12:40;17.97;;;6.57;;
16593;SDS011;8410;52.532;13.336;2023-03-04T04:15:08;13.93;;;5.93;;
16593;SDS011;8410;52.532;13.336;2023-03-04T04:17:37;16.63;;;5.43;;
16593;SDS011;8410;52.532;13.336;2023-03-04T04:20:06;15.30;;;5.60;;
16593;SDS011;8410;52.532;13.336;2023-03-04T04:22:34;12.33;;;5.10;;
16593;SDS011;8410;52.532;13.336;2023-03-04T04:25:04;16.13;;;5.20;;
16593;SDS011;8410;52.532;13.336;2023-03-04T04:27:33;15.67;;;5.13;;
16593;SDS011;8410;52.532;13.336;2023-03-04T04:30:01;13.57;;;5.13;;
16593;SDS011;8410;52.532;13.336;2023-03-04T04:32:29;23.20;;;5.70;;
16593;SDS011;8410;52.532;13.336;2023-03-04T04:34:57;13.17;;;5.30;;
16593;SDS011;8410;52.532;13.336;2023-03-04T04:37:24;15.03;;;4.93;;
16593;SDS011;8410;52.532;13.336;2023-03-04T04:39:51;15.97;;;5.43;;
16593;SDS011;8410;52.532;13.336;2023-03-04T04:42:22;10.50;;;4.40;;
16593;SDS011;8410;52.532;13.336;2023-03-04T04:44:49;10.40;;;3.90;;
16593;SDS011;8410;52.532;13.336;2023-03-04T04:47:17;13.83;;;3.90;;
16593;SDS011;8410;52.532;13.336;2023-03-04T04:49:45;13.90;;;4.33;;
16593;SDS011;8410;52.532;13.336;2023-03-04T04:52:12;8.23;;;3.73;;
16593;SDS011;8410;52.532;13.336;2023-03-04T04:54:40;14.67;;;4.30;;
16593;SDS011;8410;52.532;13.336;2023-03-04T04:57:07;14.43;;;3.97;;
16593;SDS011;8410;52.532;13.336;2023-03-04T04:59:36;13.93;;;4.30;;
16593;SDS011;8410;52.532;13.336;2023-03-04T05:02:03;9.90;;;4.00;;
16593;SDS011;8410;52.532;13.336;2023-03-04T05:04:31;16.53;;;4.47;;
16593;SDS011;8410;52.532;13.336;2023-03-04T05:06:58;12.37;;;3.97;;
16593;SDS011;8410;52.532;13.336;2023-03-04T05:09:26;14.50;;;4.40;;
16593;SDS011;8410;52.532;13.336;2023-03-04T05:11:53;10.67;;;3.93;;
16593;SDS011;8410;52.532;13.336;2023-03-04T05:14:20;12.10;;;3.77;;
16593;SDS011;8410;52.532;13.336;2023-03-04T05:16:49;15.07;;;4.67;;
16593;SDS011;8410;52.532;13.336;2023-03-04T05:19:18;11.80;;;4.40;;
16593;SDS011;8410;52.532;13.336;2023-03-04T05:21:46;13.37;;;4.00;;
16593;SDS011;8410;52.532;13.336;2023-03-04T05:24:13;12.37;;;4.50;;
16593;SDS011;8410;52.532;13.336;2023-03-04T05:26:41;13.57;;;3.90;;
16593;SDS011;8410;52.532;13.336;2023-03-04T05:29:08;13.00;;;4.80;;
16593;SDS011;8410;52.532;13.336;2023-03-04T05:31:36;13.33;;;4.63;;
16593;SDS011;8410;52.532;13.336;2023-03-04T05:34:05;13.40;;;3.87;;
16593;SDS011;8410;52.532;13.336;2023-03-04T05:36:32;13.33;;;4.10;;
16593;SDS011;8410;52.532;13.336;2023-03-04T05:39:00;11.77;;;4.20;;
16593;SDS011;8410;52.532;13.336;2023-03-04T05:41:27;14.43;;;4.43;;
16593;SDS011;8410;52.532;13.336;2023-03-04T05:43:54;11.97;;;4.13;;
16593;SDS011;8410;52.532;13.336;2023-03-04T05:46:22;17.00;;;4.30;;
16593;SDS011;8410;52.532;13.336;2023-03-04T05:48:51;15.33;;;4.20;;
16593;SDS011;8410;52.532;13.336;2023-03-04T05:51:20;13.63;;;4.10;;
16593;SDS011;8410;52.532;13.336;2023-03-04T05:53:48;12.43;;;4.47;;
16593;SDS011;8410;52.532;13.336;2023-03-04T05:56:17;11.87;;;4.03;;
16593;SDS011;8410;52.532;13.336;2023-03-04T05:58:45;12.73;;;4.43;;
16593;SDS011;8410;52.532;13.336;2023-03-04T06:01:13;13.13;;;3.60;;
16593;SDS011;8410;52.532;13.336;2023-03-04T06:03:41;12.33;;;3.90;;
16593;SDS011;8410;52.532;13.336;2023-03-04T06:06:09;11.70;;;3.87;;
16593;SDS011;8410;52.532;13.336;2023-03-04T06:08:38;16.03;;;4.07;;
16593;SDS011;8410;52.532;13.336;2023-03-04T06:11:05;11.43;;;3.73;;
16593;SDS011;8410;52.532;13.336;2023-03-04T06:13:33;8.40;;;3.50;;
16593;SDS011;8410;52.532;13.336;2023-03-04T06:16:01;10.13;;;3.70;;
16593;SDS011;8410;52.532;13.336;2023-03-04T06:18:28;12.50;;;4.10;;
16593;SDS011;8410;52.532;13.336;2023-03-04T06:20:56;16.37;;;3.83;;
16593;SDS011;8410;52.532;13.336;2023-03-04T06:23:24;11.53;;;3.90;;
16593;SDS011;8410;52.532;13.336;2023-03-04T06:25:54;9.83;;;3.50;;
16593;SDS011;8410;52.532;13.336;2023-03-04T06:28:24;11.60;;;3.97;;
16593;SDS011;8410;52.532;13.336;2023-03-04T06:30:52;10.87;;;3.43;;
16593;SDS011;8410;52.532;13.336;2023-03-04T06:33:20;11.00;;;3.50;;
16593;SDS011;8410;52.532;13.336;2023-03-04T06:35:48;10.27;;;3.43;;
16593;SDS011;8410;52.532;13.336;2023-03-04T06:38:19;8.07;;;2.87;;
16593;SDS011;8410;52.532;13.336;2023-03-04T06:40:47;10.73;;;3.40;;
16593;SDS011;8410;52.532;13.336;2023-03-04T06:43:15;11.83;;;3.97;;
16593;SDS011;8410;52.532;13.336;2023-03-04T06:45:43;14.07;;;3.87;;
16593;SDS011;8410;52.532;13.336;2023-03-04T06:48:11;10.83;;;3.73;;
16593;SDS011;8410;52.532;13.336;2023-03-04T06:50:38;10.90;;;3.77;;
16593;SDS011;8410;52.532;13.336;2023-03-04T06:53:06;9.97;;;3.50;;
16593;SDS011;8410;52.532;13.336;2023-03-04T06:55:34;7.43;;;3.50;;
16593;SDS011;8410;52.532;13.336;2023-03-04T06:58:02;12.03;;;3.83;;
16593;SDS011;8410;52.532;13.336;2023-03-04T07:00:31;9.60;;;3.43;;
16593;SDS011;8410;52.532;13.336;2023-03-04T07:02:58;8.40;;;2.63;;
16593;SDS011;8410;52.532;13.336;2023-03-04T07:05:27;5.97;;;3.00;;
16593;SDS011;8410;52.532;13.336;2023-03-04T07:07:54;10.97;;;3.43;;
16593;SDS011;8410;52.532;13.336;2023-03-04T07:10:22;10.57;;;3.47;;
16593;SDS011;8410;52.532;13.336;2023-03-04T07:12:49;8.87;;;4.03;;
16593;SDS011;8410;52.532;13.336;2023-03-04T07:15:16;9.23;;;3.27;;
16593;SDS011;8410;52.532;13.336;2023-03-04T07:17:45;10.03;;;3.57;;
16593;SDS011;8410;52.532;13.336;2023-03-04T07:20:13;11.17;;;3.87;;
16593;SDS011;8410;52.532;13.336;2023-03-04T07:22:40;6.87;;;2.97;;
16593;SDS011;8410;52.532;13.336;2023-03-04T07:25:08;9.87;;;3.10;;
16593;SDS011;8410;52.532;13.336;2023-03-04T07:27:35;6.53;;;3.20;;
16593;SDS011;8410;52.532;13.336;2023-03-04T07:30:03;5.93;;;2.87;;
16593;SDS011;8410;52.532;13.336;2023-03-04T07:32:32;5.67;;;2.97;;
16593;SDS011;8410;52.532;13.336;2023-03-04T07:35:01;4.70;;;2.30;;
16593;SDS011;8410;52.532;13.336;2023-03-04T07:37:29;7.60;;;3.10;;
16593;SDS011;8410;52.532;13.336;2023-03-04T07:39:56;5.60;;;3.00;;
16593;SDS011;8410;52.532;13.336;2023-03-04T07:42:23;8.77;;;2.70;;
16593;SDS011;8410;52.532;13.336;2023-03-04T07:44:51;7.03;;;2.60;;
16593;SDS011;8410;52.532;13.336;2023-03-04T07:47:20;5.90;;;2.73;;
16593;SDS011;8410;52.532;13.336;2023-03-04T07:49:47;7.80;;;2.73;;
16593;SDS011;8410;52.532;13.336;2023-03-04T07:52:16;7.17;;;2.53;;
16593;SDS011;8410;52.532;13.336;2023-03-04T07:54:43;6.33;;;2.70;;
16593;SDS011;8410;52.532;13.336;2023-03-04T07:57:11;5.60;;;2.60;;
16593;SDS011;8410;52.532;13.336;2023-03-04T07:59:38;5.63;;;2.87;;
16593;SDS011;8410;52.532;13.336;2023-03-04T08:02:06;6.53;;;2.80;;
16593;SDS011;8410;52.532;13.336;2023-03-04T08:04:35;6.60;;;2.53;;
16593;SDS011;8410;52.532;13.336;2023-03-04T08:07:02;5.63;;;2.40;;
16593;SDS011;8410;52.532;13.336;2023-03-04T08:09:31;4.73;;;2.33;;
16593;SDS011;8410;52.532;13.336;2023-03-04T08:11:58;4.20;;;2.00;;
16593;SDS011;8410;52.532;13.336;2023-03-04T08:14:26;5.13;;;2.23;;
16593;SDS011;8410;52.532;13.336;2023-03-04T08:16:53;5.73;;;2.37;;
16593;SDS011;8410;52.532;13.336;2023-03-04T08:19:21;5.93;;;2.00;;
16593;SDS011;8410;52.532;13.336;2023-03-04T08:21:51;4.97;;;2.00;;
16593;SDS011;8410;52.532;13.336;2023-03-04T08:24:18;9.90;;;2.60;;
16593;SDS011;8410;52.532;13.336;2023-03-04T08:26:48;5.43;;;2.47;;
16593;SDS011;8410;52.532;13.336;2023-03-04T08:29:17;7.87;;;2.50;;
16593;SDS011;8410;52.532;13.336;2023-03-04T08:31:46;8.17;;;2.30;;
16593;SDS011;8410;52.532;13.336;2023-03-04T08:34:14;5.80;;;1.97;;
16593;SDS011;8410;52.532;13.336;2023-03-04T08:36:42;4.93;;;1.83;;
16593;SDS011;8410;52.532;13.336;2023-03-04T08:39:10;8.40;;;2.33;;
16593;SDS011;8410;52.532;13.336;2023-03-04T08:41:39;7.20;;;1.97;;
16593;SDS011;8410;52.532;13.336;2023-03-04T08:44:07;6.20;;;2.43;;
16593;SDS011;8410;52.532;13.336;2023-03-04T08:46:36;9.13;;;2.30;;
16593;SDS011;8410;52.532;13.336;2023-03-04T08:49:05;9.30;;;1.80;;
16593;SDS011;8410;52.532;13.336;2023-03-04T08:51:33;5.20;;;1.50;;
16593;SDS011;8410;52.532;13.336;2023-03-04T08:54:01;8.30;;;1.70;;
16593;SDS011;8410;52.532;13.336;2023-03-04T08:56:31;7.57;;;1.97;;
16593;SDS011;8410;52.532;13.336;2023-03-04T08:58:59;8.10;;;2.40;;
16593;SDS011;8410;52.532;13.336;2023-03-04T09:01:28;10.00;;;1.87;;
16593;SDS011;8410;52.532;13.336;2023-03-04T09:03:55;7.53;;;2.63;;
16593;SDS011;8410;52.532;13.336;2023-03-04T09:06:23;5.63;;;2.00;;
16593;SDS011;8410;52.532;13.336;2023-03-04T09:08:50;8.70;;;2.07;;
16593;SDS011;8410;52.532;13.336;2023-03-04T09:11:18;7.63;;;1.77;;
16593;SDS011;8410;52.532;13.336;2023-03-04T09:13:45;4.53;;;1.93;;
16593;SDS011;8410;52.532;13.336;2023-03-04T09:16:13;9.17;;;2.10;;
16593;SDS011;8410;52.532;13.336;2023-03-04T09:18:42;8.37;;;1.87;;
16593;SDS011;8410;52.532;13.336;2023-03-04T09:21:10;4.00;;;1.77;;
16593;SDS011;8410;52.532;13.336;2023-03-04T09:23:37;8.13;;;2.07;;
16593;SDS011;8410;52.532;13.336;2023-03-04T09:26:12;8.87;;;1.67;;
16593;SDS011;8410;52.532;13.336;2023-03-04T09:28:43;4.83;;;1.83;;
16593;SDS011;8410;52.532;13.336;2023-03-04T09:31:11;4.87;;;1.77;;
16593;SDS011;8410;52.532;13.336;2023-03-04T09:33:39;9.00;;;2.00;;
16593;SDS011;8410;52.532;13.336;2023-03-04T09:36:09;8.00;;;1.80;;
16593;SDS011;8410;52.532;13.336;2023-03-04T09:38:39;7.07;;;2.10;;
16593;SDS011;8410;52.532;13.336;2023-03-04T09:41:09;6.73;;;2.20;;
16593;SDS011;8410;52.532;13.336;2023-03-04T09:43:41;8.00;;;2.10;;
16593;SDS011;8410;52.532;13.336;2023-03-04T09:46:11;8.23;;;1.93;;
16593;SDS011;8410;52.532;13.336;2023-03-04T09:48:43;11.50;;;2.77;;
16593;SDS011;8410;52.532;13.336;2023-03-04T09:51:19;6.60;;;2.03;;
16593;SDS011;8410;52.532;13.336;2023-03-04T09:53:53;8.27;;;2.53;;
16593;SDS011;8410;52.532;13.336;2023-03-04T09:56:32;6.67;;;2.60;;
16593;SDS011;8410;52.532;13.336;2023-03-04T09:59:02;8.90;;;2.40;;
16593;SDS011;8410;52.532;13.336;2023-03-04T10:01:41;7.13;;;1.80;;
16593;SDS011;8410;52.532;13.336;2023-03-04T10:04:15;9.33;;;1.77;;
16593;SDS011;8410;52.532;13.336;2023-03-04T10:06:49;7.27;;;1.80;;
16593;SDS011;8410;52.532;13.336;2023-03-04T10:09:20;6.33;;;1.93;;
16593;SDS011;8410;52.532;13.336;2023-03-04T10:11:53;8.80;;;2.23;;
16593;SDS011;8410;52.532;13.336;2023-03-04T10:14:29;10.73;;;2.10;;
16593;SDS011;8410;52.532;13.336;2023-03-04T10:17:02;4.67;;;1.63;;
16593;SDS011;8410;52.532;13.336;2023-03-04T10:19:42;11.13;;;2.30;;
16593;SDS011;8410;52.532;13.336;2023-03-04T10:22:21;6.57;;;2.20;;
16593;SDS011;8410;52.532;13.336;2023-03-04T10:24:53;12.30;;;2.40;;
16593;SDS011;8410;52.532;13.336;2023-03-04T10:27:23;6.90;;;1.87;;
16593;SDS011;8410;52.532;13.336;2023-03-04T10:29:52;7.17;;;2.00;;
16593;SDS011;8410;52.532;13.336;2023-03-04T10:32:19;9.53;;;2.03;;
16593;SDS011;8410;52.532;13.336;2023-03-04T10:34:47;9.00;;;2.20;;
16593;SDS011;8410;52.532;13.336;2023-03-04T10:37:15;7.77;;;2.80;;
16593;SDS011;8410;52.532;13.336;2023-03-04T10:39:44;9.77;;;2.33;;
16593;SDS011;8410;52.532;13.336;2023-03-04T10:42:26;12.20;;;2.77;;
16593;SDS011;8410;52.532;13.336;2023-03-04T10:45:03;14.27;;;3.00;;
16593;SDS011;8410;52.532;13.336;2023-03-04T10:47:47;10.80;;;2.63;;
16593;SDS011;8410;52.532;13.336;2023-03-04T10:50:20;14.87;;;3.00;;
16593;SDS011;8410;52.532;13.336;2023-03-04T10:52:50;14.07;;;2.67;;
16593;SDS011;8410;52.532;13.336;2023-03-04T10:55:22;14.13;;;2.37;;
16593;SDS011;8410;52.532;13.336;2023-03-04T10:57:53;13.40;;;2.53;;
16593;SDS011;8410;52.532;13.336;2023-03-04T11:00:24;11.33;;;2.40;;
16593;SDS011;8410;52.532;13.336;2023-03-04T11:05:49;13.70;;;2.60;;
16593;SDS011;8410;52.532;13.336;2023-03-04T11:08:20;12.30;;;2.70;;
16593;SDS011;8410;52.532;13.336;2023-03-04T11:10:50;11.90;;;2.83;;
16593;SDS011;8410;52.532;13.336;2023-03-04T11:13:18;10.70;;;3.30;;
16593;SDS011;8410;52.532;13.336;2023-03-04T11:15:52;9.33;;;2.63;;
16593;SDS011;8410;52.532;13.336;2023-03-04T11:18:26;12.23;;;2.93;;
16593;SDS011;8410;52.532;13.336;2023-03-04T11:20:58;10.47;;;2.83;;
16593;SDS011;8410;52.532;13.336;2023-03-04T11:23:30;13.30;;;2.80;;
16593;SDS011;8410;52.532;13.336;2023-03-04T11:26:03;9.47;;;2.70;;
16593;SDS011;8410;52.532;13.336;2023-03-04T11:28:43;13.97;;;2.80;;
16593;SDS011;8410;52.532;13.336;2023-03-04T11:31:13;12.33;;;2.90;;
16593;SDS011;8410;52.532;13.336;2023-03-04T11:33:47;11.73;;;2.77;;
16593;SDS011;8410;52.532;13.336;2023-03-04T11:36:22;13.60;;;3.07;;
16593;SDS011;8410;52.532;13.336;2023-03-04T11:38:58;13.03;;;3.13;;
16593;SDS011;8410;52.532;13.336;2023-03-04T11:41:29;14.67;;;3.83;;
16593;SDS011;8410;52.532;13.336;2023-03-04T11:44:01;11.60;;;2.57;;
16593;SDS011;8410;52.532;13.336;2023-03-04T11:46:35;17.03;;;3.10;;
16593;SDS011;8410;52.532;13.336;2023-03-04T11:49:21;19.93;;;4.30;;
16593;SDS011;8410;52.532;13.336;2023-03-04T11:52:01;18.90;;;3.93;;
16593;SDS011;8410;52.532;13.336;2023-03-04T11:54:38;12.83;;;2.73;;
16593;SDS011;8410;52.532;13.336;2023-03-04T11:57:20;14.93;;;3.03;;
16593;SDS011;8410;52.532;13.336;2023-03-04T11:59:55;16.43;;;3.17;;
16593;SDS011;8410;52.532;13.336;2023-03-04T12:02:43;12.23;;;3.07;;
16593;SDS011;8410;52.532;13.336;2023-03-04T12:05:25;17.40;;;2.73;;
16593;SDS011;8410;52.532;13.336;2023-03-04T12:08:07;14.03;;;2.97;;
16593;SDS011;8410;52.532;13.336;2023-03-04T12:10:54;14.53;;;2.90;;
16593;SDS011;8410;52.532;13.336;2023-03-04T12:16:33;12.73;;;2.70;;
16593;SDS011;8410;52.532;13.336;2023-03-04T12:19:17;11.20;;;2.70;;
16593;SDS011;8410;52.532;13.336;2023-03-04T12:21:59;13.13;;;2.53;;
16593;SDS011;8410;52.532;13.336;2023-03-04T12:24:44;13.10;;;3.00;;
16593;SDS011;8410;52.532;13.336;2023-03-04T12:27:30;14.10;;;2.90;;
16593;SDS011;8410;52.532;13.336;2023-03-04T12:30:14;11.23;;;3.17;;
16593;SDS011;8410;52.532;13.336;2023-03-04T12:32:49;14.67;;;2.73;;
16593;SDS011;8410;52.532;13.336;2023-03-04T12:35:27;9.20;;;3.20;;
16593;SDS011;8410;52.532;13.336;2023-03-04T12:38:05;14.10;;;3.73;;
16593;SDS011;8410;52.532;13.336;2023-03-04T12:40:46;10.10;;;2.67;;
16593;SDS011;8410;52.532;13.336;2023-03-04T12:43:27;12.00;;;2.47;;
16593;SDS011;8410;52.532;13.336;2023-03-04T12:46:05;14.17;;;2.87;;
16593;SDS011;8410;52.532;13.336;2023-03-04T12:48:43;13.07;;;2.53;;
16593;SDS011;8410;52.532;13.336;2023-03-04T12:51:24;11.67;;;2.97;;
16593;SDS011;8410;52.532;13.336;2023-03-04T12:54:02;10.97;;;2.63;;
16593;SDS011;8410;52.532;13.336;2023-03-04T12:56:44;12.40;;;2.97;;
16593;SDS011;8410;52.532;13.336;2023-03-04T12:59:18;11.03;;;2.90;;
16593;SDS011;8410;52.532;13.336;2023-03-04T13:01:52;10.00;;;3.10;;
16593;SDS011;8410;52.532;13.336;2023-03-04T13:04:34;12.03;;;2.67;;
16593;SDS011;8410;52.532;13.336;2023-03-04T13:07:15;13.30;;;2.40;;
16593;SDS011;8410;52.532;13.336;2023-03-04T13:09:49;11.60;;;2.77;;
16593;SDS011;8410;52.532;13.336;2023-03-04T13:12:21;8.73;;;2.03;;
16593;SDS011;8410;52.532;13.336;2023-03-04T13:17:46;13.60;;;3.03;;
16593;SDS011;8410;52.532;13.336;2023-03-04T13:20:19;15.83;;;3.43;;
16593;SDS011;8410;52.532;13.336;2023-03-04T13:22:51;16.10;;;3.37;;
16593;SDS011;8410;52.532;13.336;2023-03-04T13:25:30;12.53;;;3.13;;
16593;SDS011;8410;52.532;13.336;2023-03-04T13:28:23;12.33;;;2.40;;
16593;SDS011;8410;52.532;13.336;2023-03-04T13:33:54;15.40;;;3.43;;
16593;SDS011;8410;52.532;13.336;2023-03-04T13:39:22;12.67;;;2.60;;
16593;SDS011;8410;52.532;13.336;2023-03-04T13:41:52;9.93;;;2.73;;
16593;SDS011;8410;52.532;13.336;2023-03-04T13:44:35;8.03;;;2.77;;
16593;SDS011;8410;52.532;13.336;2023-03-04T13:47:26;14.07;;;2.90;;
16593;SDS011;8410;52.532;13.336;2023-03-04T13:52:58;10.47;;;2.73;;
16593;SDS011;8410;52.532;13.336;2023-03-04T13:55:58;10.47;;;2.87;;
16593;SDS011;8410;52.532;13.336;2023-03-04T13:58:31;12.33;;;2.80;;
16593;SDS011;8410;52.532;13.336;2023-03-04T14:01:00;12.20;;;2.73;;
16593;SDS011;8410;52.532;13.336;2023-03-04T14:03:28;9.67;;;2.53;;
16593;SDS011;8410;52.532;13.336;2023-03-04T14:08:45;12.63;;;3.23;;
16593;SDS011;8410;52.532;13.336;2023-03-04T14:11:14;12.47;;;3.23;;
16593;SDS011;8410;52.532;13.336;2023-03-04T14:13:45;15.70;;;3.87;;
16593;SDS011;8410;52.532;13.336;2023-03-04T14:16:17;13.53;;;3.33;;
16593;SDS011;8410;52.532;13.336;2023-03-04T14:18:55;12.33;;;3.20;;
16593;SDS011;8410;52.532;13.336;2023-03-04T14:21:24;13.77;;;3.40;;
16593;SDS011;8410;52.532;13.336;2023-03-04T14:23:59;12.90;;;3.23;;
16593;SDS011;8410;52.532;13.336;2023-03-04T14:26:28;15.03;;;3.03;;
16593;SDS011;8410;52.532;13.336;2023-03-04T14:28:56;10.20;;;2.90;;
16593;SDS011;8410;52.532;13.336;2023-03-04T14:31:25;13.67;;;2.80;;
16593;SDS011;8410;52.532;13.336;2023-03-04T14:33:55;11.33;;;2.93;;
16593;SDS011;8410;52.532;13.336;2023-03-04T14:36:30;12.23;;;3.03;;
16593;SDS011;8410;52.532;13.336;2023-03-04T14:39:00;12.37;;;3.30;;
16593;SDS011;8410;52.532;13.336;2023-03-04T14:41:31;13.57;;;3.50;;
16593;SDS011;8410;52.532;13.336;2023-03-04T14:44:04;18.87;;;3.47;;
16593;SDS011;8410;52.532;13.336;2023-03-04T14:46:38;12.63;;;3.57;;
16593;SDS011;8410;52.532;13.336;2023-03-04T14:49:16;14.70;;;3.17;;
16593;SDS011;8410;52.532;13.336;2023-03-04T14:51:46;18.20;;;3.67;;
16593;SDS011;8410;52.532;13.336;2023-03-04T14:54:24;13.47;;;3.43;;
16593;SDS011;8410;52.532;13.336;2023-03-04T14:56:54;11.03;;;2.83;;
16593;SDS011;8410;52.532;13.336;2023-03-04T14:59:26;12.60;;;3.00;;
16593;SDS011;8410;52.532;13.336;2023-03-04T15:02:07;14.33;;;3.03;;
16593;SDS011;8410;52.532;13.336;2023-03-04T15:04:43;22.37;;;4.10;;
16593;SDS011;8410;52.532;13.336;2023-03-04T15:07:14;12.77;;;3.03;;
16593;SDS011;8410;52.532;13.336;2023-03-04T15:09:48;14.30;;;3.00;;
16593;SDS011;8410;52.532;13.336;2023-03-04T15:12:21;15.83;;;3.40;;
16593;SDS011;8410;52.532;13.336;2023-03-04T15:14:52;12.27;;;3.00;;